createdAt,value
2023-01-06T00:01:13.100Z,4.55
2023-01-06T00:03:40.081Z,5.88
2023-01-06T00:06:09.527Z,6.38
2023-01-06T00:08:37.117Z,4.60
2023-01-06T00:11:15.008Z,5.55
2023-01-06T00:13:42.243Z,5.57
2023-01-06T00:16:11.977Z,8.05
2023-01-06T00:18:39.468Z,6.43
2023-01-06T00:21:07.397Z,4.15
2023-01-06T00:23:35.458Z,5.63
2023-01-06T00:26:02.890Z,6.65
2023-01-06T00:28:29.970Z,7.40
2023-01-06T00:30:56.952Z,6.60
2023-01-06T00:33:24.171Z,4.32
2023-01-06T00:35:51.431Z,6.47
2023-01-06T00:38:19.437Z,10.20
2023-01-06T00:40:47.438Z,7.75
2023-01-06T00:43:14.227Z,5.53
2023-01-06T00:45:41.045Z,3.75
2023-01-06T00:48:08.569Z,6.93
2023-01-06T00:50:36.119Z,7.28
2023-01-06T00:53:03.510Z,7.80
2023-01-06T00:55:30.263Z,6.15
2023-01-06T00:57:57.071Z,5.60
2023-01-06T01:00:24.004Z,6.55
2023-01-06T01:02:50.846Z,5.07
2023-01-06T01:05:17.846Z,7.25
2023-01-06T01:07:44.634Z,7.60
2023-01-06T01:10:11.594Z,6.63
2023-01-06T01:12:39.702Z,9.25
2023-01-06T01:15:06.977Z,5.15
2023-01-06T01:17:33.898Z,8.30
2023-01-06T01:20:01.252Z,6.88
2023-01-06T01:22:31.751Z,5.10
2023-01-06T01:25:00.914Z,6.35
2023-01-06T01:27:31.976Z,5.80
2023-01-06T01:29:58.699Z,6.50
2023-01-06T01:32:25.570Z,6.53
2023-01-06T01:34:52.360Z,11.00
2023-01-06T01:37:19.949Z,11.07
2023-01-06T01:39:47.320Z,4.60
2023-01-06T01:42:18.352Z,6.68
2023-01-06T01:44:55.994Z,6.13
2023-01-06T01:47:46.406Z,7.28
2023-01-06T01:50:16.187Z,10.18
2023-01-06T01:52:45.506Z,7.18
2023-01-06T01:55:14.461Z,8.27
2023-01-06T01:57:47.577Z,9.13
2023-01-06T02:00:14.610Z,6.45
2023-01-06T02:02:43.331Z,10.52
2023-01-06T02:05:15.344Z,8.25
2023-01-06T02:07:42.247Z,4.22
2023-01-06T02:10:13.511Z,8.48
2023-01-06T02:12:41.975Z,7.28
2023-01-06T02:15:19.501Z,6.97
2023-01-06T02:17:59.225Z,7.97
2023-01-06T02:20:36.289Z,8.73
2023-01-06T02:23:18.864Z,8.40
2023-01-06T02:26:22.679Z,7.85
2023-01-06T02:29:11.336Z,8.90
2023-01-06T02:31:57.435Z,6.03
2023-01-06T02:34:33.420Z,8.23
2023-01-06T02:37:25.810Z,5.85
2023-01-06T02:40:11.233Z,8.98
2023-01-06T02:43:10.246Z,6.53
2023-01-06T02:46:08.353Z,9.82
2023-01-06T02:48:51.035Z,9.65
2023-01-06T02:51:40.057Z,7.55
2023-01-06T02:54:20.422Z,8.15
2023-01-06T02:56:57.962Z,8.02
2023-01-06T02:59:31.728Z,4.60
2023-01-06T03:01:59.787Z,6.68
2023-01-06T03:04:31.750Z,9.50
2023-01-06T03:07:02.461Z,9.02
2023-01-06T03:09:37.457Z,8.93
2023-01-06T03:12:28.530Z,8.20
2023-01-06T03:14:57.098Z,7.68
2023-01-06T03:17:25.370Z,11.52
2023-01-06T03:19:52.420Z,7.03
2023-01-06T03:22:20.263Z,6.65
2023-01-06T03:24:47.826Z,9.70
2023-01-06T03:27:18.169Z,6.90
2023-01-06T03:29:45.419Z,5.72
2023-01-06T03:32:18.998Z,6.53
2023-01-06T03:35:13.976Z,7.07
2023-01-06T03:38:05.332Z,5.53
2023-01-06T03:40:40.730Z,13.85
2023-01-06T03:43:39.704Z,10.85
2023-01-06T03:46:18.576Z,7.97
2023-01-06T03:49:00.568Z,8.15
2023-01-06T03:52:00.125Z,7.43
2023-01-06T03:54:59.545Z,9.77
2023-01-06T03:57:33.450Z,6.18
2023-01-06T04:00:26.070Z,11.48
2023-01-06T04:02:59.256Z,7.47
2023-01-06T04:05:28.635Z,7.85
2023-01-06T04:07:59.015Z,13.68
2023-01-06T04:10:27.639Z,5.38
2023-01-06T04:12:57.318Z,9.70
2023-01-06T04:15:29.603Z,5.80
2023-01-06T04:17:58.371Z,6.63
2023-01-06T04:20:28.565Z,5.15
2023-01-06T04:23:09.809Z,13.07
2023-01-06T04:25:39.442Z,6.75
2023-01-06T04:28:14.021Z,10.15
2023-01-06T04:30:41.583Z,10.65
2023-01-06T04:33:08.559Z,8.40
2023-01-06T04:35:37.336Z,8.48
2023-01-06T04:38:04.184Z,7.25
2023-01-06T04:40:30.978Z,9.65
2023-01-06T04:43:06.700Z,8.20
2023-01-06T04:45:35.079Z,7.85
2023-01-06T04:48:02.293Z,11.35
2023-01-06T04:50:29.099Z,10.10
2023-01-06T04:52:55.911Z,12.18
2023-01-06T04:55:23.025Z,8.77
2023-01-06T04:57:49.855Z,8.00
2023-01-06T05:00:17.363Z,9.75
2023-01-06T05:02:44.867Z,12.40
2023-01-06T05:05:12.161Z,6.88
2023-01-06T05:07:39.195Z,7.95
2023-01-06T05:10:07.988Z,6.13
2023-01-06T05:12:36.818Z,6.57
2023-01-06T05:15:06.685Z,6.63
2023-01-06T05:17:33.801Z,8.55
2023-01-06T05:20:00.646Z,10.93
2023-01-06T05:22:27.422Z,8.32
2023-01-06T05:24:54.189Z,11.98
2023-01-06T05:27:20.954Z,11.27
2023-01-06T05:29:47.890Z,10.50
2023-01-06T05:32:14.804Z,8.52
2023-01-06T05:34:41.578Z,9.75
2023-01-06T05:37:08.341Z,11.95
2023-01-06T05:39:35.058Z,8.73
2023-01-06T05:42:01.775Z,11.52
2023-01-06T05:44:28.570Z,8.88
2023-01-06T05:46:55.345Z,8.27
2023-01-06T05:49:22.124Z,9.07
2023-01-06T05:51:49.316Z,10.32
2023-01-06T05:54:16.133Z,10.82
2023-01-06T05:56:42.920Z,9.15
2023-01-06T05:59:09.667Z,9.77
2023-01-06T06:01:36.485Z,14.73
2023-01-06T06:04:03.461Z,10.98
2023-01-06T06:06:31.085Z,6.97
2023-01-06T06:08:58.822Z,11.80
2023-01-06T06:11:25.801Z,8.27
2023-01-06T06:13:55.214Z,15.07
2023-01-06T06:16:27.782Z,11.00
2023-01-06T06:18:57.619Z,12.73
2023-01-06T06:21:26.664Z,10.48
2023-01-06T06:23:54.753Z,12.15
2023-01-06T06:26:22.111Z,12.13
2023-01-06T06:28:48.960Z,10.02
2023-01-06T06:31:20.915Z,10.48
2023-01-06T06:33:51.528Z,10.20
2023-01-06T06:36:18.446Z,8.73
2023-01-06T06:38:50.062Z,12.25
2023-01-06T06:41:17.405Z,14.68
2023-01-06T06:43:44.701Z,9.65
2023-01-06T06:46:12.090Z,9.60
2023-01-06T06:48:39.409Z,10.88
2023-01-06T06:51:17.122Z,9.93
2023-01-06T06:53:44.172Z,7.30
2023-01-06T06:56:12.495Z,9.00
2023-01-06T06:58:39.602Z,8.50
2023-01-06T07:01:11.681Z,10.43
2023-01-06T07:03:38.808Z,9.85
2023-01-06T07:06:08.750Z,6.95
2023-01-06T07:08:35.723Z,8.32
2023-01-06T07:11:02.995Z,6.65
2023-01-06T07:13:29.828Z,9.23
2023-01-06T07:15:56.638Z,8.27
2023-01-06T07:18:23.467Z,9.57
2023-01-06T07:20:54.141Z,11.43
2023-01-06T07:23:22.507Z,10.63
2023-01-06T07:25:54.200Z,11.50
2023-01-06T07:28:21.115Z,11.00
2023-01-06T07:30:47.994Z,9.55
2023-01-06T07:33:14.999Z,10.07
2023-01-06T07:35:41.809Z,12.15
2023-01-06T07:38:09.333Z,8.57
2023-01-06T07:40:37.378Z,10.23
2023-01-06T07:43:11.605Z,8.07
2023-01-06T07:45:38.741Z,15.13
2023-01-06T07:48:06.979Z,12.65
2023-01-06T07:50:33.751Z,11.18
2023-01-06T07:53:02.227Z,9.80
2023-01-06T07:55:30.174Z,13.13
2023-01-06T07:57:58.704Z,8.48
2023-01-06T08:00:25.729Z,10.15
2023-01-06T08:02:52.646Z,11.07
2023-01-06T08:05:19.575Z,8.95
2023-01-06T08:07:46.393Z,8.50
2023-01-06T08:10:13.171Z,10.07
2023-01-06T08:12:40.051Z,10.77
2023-01-06T08:15:07.378Z,13.30
2023-01-06T08:17:34.152Z,7.78
2023-01-06T08:20:00.962Z,8.45
2023-01-06T08:22:30.008Z,15.75
2023-01-06T08:24:56.783Z,9.48
2023-01-06T08:27:24.298Z,15.20
2023-01-06T08:29:52.228Z,7.47
2023-01-06T08:32:19.022Z,12.88
2023-01-06T08:34:45.744Z,11.50
2023-01-06T08:37:12.574Z,10.02
2023-01-06T08:39:39.452Z,13.25
2023-01-06T08:42:06.370Z,10.25
2023-01-06T08:44:33.176Z,9.82
2023-01-06T08:46:59.961Z,10.60
2023-01-06T08:49:26.841Z,11.18
2023-01-06T08:51:53.761Z,9.13
2023-01-06T08:54:20.653Z,6.93
2023-01-06T08:56:47.454Z,7.18
2023-01-06T08:59:16.282Z,6.25
2023-01-06T09:01:44.197Z,10.95
2023-01-06T09:04:12.794Z,7.47
2023-01-06T09:06:41.890Z,10.52
2023-01-06T09:09:11.863Z,11.75
2023-01-06T09:11:41.232Z,9.57
2023-01-06T09:14:09.467Z,8.75
2023-01-06T09:16:36.266Z,8.10
2023-01-06T09:19:03.277Z,9.05
2023-01-06T09:21:31.790Z,8.32
2023-01-06T09:23:58.806Z,8.13
2023-01-06T09:26:25.742Z,12.93
2023-01-06T09:28:52.504Z,9.95
2023-01-06T09:31:19.584Z,7.93
2023-01-06T09:33:46.523Z,12.70
2023-01-06T09:36:13.343Z,10.77
2023-01-06T09:38:40.115Z,10.73
2023-01-06T09:41:25.392Z,9.10
2023-01-06T09:44:14.805Z,9.65
2023-01-06T09:46:44.645Z,14.23
2023-01-06T09:49:52.215Z,10.23
2023-01-06T09:52:24.570Z,14.40
2023-01-06T09:55:27.395Z,11.43
2023-01-06T09:58:17.622Z,9.27
2023-01-06T10:00:52.864Z,12.38
2023-01-06T10:03:21.219Z,8.23
2023-01-06T10:06:21.487Z,8.90
2023-01-06T10:09:08.751Z,9.15
2023-01-06T10:11:53.546Z,15.38
2023-01-06T10:14:22.899Z,10.98
2023-01-06T10:17:11.058Z,7.38
2023-01-06T10:19:59.055Z,9.85
2023-01-06T10:22:36.633Z,9.60
2023-01-06T10:25:12.475Z,8.57
2023-01-06T10:27:48.878Z,11.75
2023-01-06T10:30:44.307Z,10.18
2023-01-06T10:33:29.756Z,8.43
2023-01-06T10:35:57.754Z,4.97
2023-01-06T10:38:46.824Z,8.23
2023-01-06T10:41:27.699Z,6.70
2023-01-06T10:43:54.592Z,7.45
2023-01-06T10:46:21.595Z,9.07
2023-01-06T10:48:52.226Z,10.05
2023-01-06T10:51:39.317Z,9.05
2023-01-06T10:54:15.119Z,8.30
2023-01-06T10:56:47.322Z,12.82
2023-01-06T10:59:14.335Z,9.50
2023-01-06T11:01:59.319Z,7.45
2023-01-06T11:04:28.300Z,9.98
2023-01-06T11:07:03.431Z,6.75
2023-01-06T11:09:41.564Z,8.82
2023-01-06T11:12:21.011Z,8.90
2023-01-06T11:15:00.399Z,8.27
2023-01-06T11:17:28.488Z,6.53
2023-01-06T11:20:07.508Z,8.73
2023-01-06T11:22:36.092Z,9.10
2023-01-06T11:25:04.403Z,8.02
2023-01-06T11:27:31.296Z,7.95
2023-01-06T11:29:58.059Z,12.30
2023-01-06T11:32:29.858Z,8.57
2023-01-06T11:35:02.962Z,9.13
2023-01-06T11:37:42.141Z,16.35
2023-01-06T11:40:26.791Z,11.52
2023-01-06T11:42:58.219Z,9.13
2023-01-06T11:45:42.067Z,8.95
2023-01-06T11:48:20.966Z,7.93
2023-01-06T11:50:56.492Z,9.10
2023-01-06T11:53:25.966Z,10.10
2023-01-06T11:56:05.506Z,12.95
2023-01-06T11:59:04.433Z,11.25
2023-01-06T12:01:36.394Z,8.45
2023-01-06T12:04:37.710Z,8.63
2023-01-06T12:07:19.115Z,10.68
2023-01-06T12:09:49.415Z,9.73
2023-01-06T12:12:21.789Z,10.00
2023-01-06T12:14:48.814Z,8.10
2023-01-06T12:17:51.128Z,10.18
2023-01-06T12:20:24.409Z,12.75
2023-01-06T12:25:48.226Z,12.07
2023-01-06T12:28:17.890Z,11.07
2023-01-06T12:30:54.362Z,12.43
2023-01-06T12:33:30.278Z,13.60
2023-01-06T12:36:06.081Z,10.02
2023-01-06T12:38:42.105Z,9.30
2023-01-06T12:41:29.854Z,8.27
2023-01-06T12:44:17.788Z,9.88
2023-01-06T12:47:19.192Z,7.00
2023-01-06T12:49:45.942Z,7.75
2023-01-06T12:52:42.053Z,13.23
2023-01-06T12:55:19.039Z,12.90
2023-01-06T12:58:08.707Z,11.88
2023-01-06T13:00:53.334Z,11.55
2023-01-06T13:03:55.279Z,13.65
2023-01-06T13:06:40.575Z,12.35
2023-01-06T13:09:16.571Z,14.55
2023-01-06T13:12:05.075Z,10.35
2023-01-06T13:14:47.006Z,10.20
2023-01-06T13:17:25.717Z,12.38
2023-01-06T13:19:53.894Z,13.82
2023-01-06T13:22:47.845Z,10.57
2023-01-06T13:25:44.916Z,11.57
2023-01-06T13:28:25.216Z,9.18
2023-01-06T13:31:23.340Z,9.43
2023-01-06T13:34:34.496Z,7.95
2023-01-06T13:37:36.851Z,9.93
2023-01-06T13:40:16.690Z,10.82
2023-01-06T13:43:07.981Z,11.82
2023-01-06T13:45:39.335Z,10.93
2023-01-06T13:48:09.128Z,11.70
2023-01-06T13:50:38.356Z,11.18
2023-01-06T13:53:06.332Z,12.80
2023-01-06T13:55:39.053Z,7.97
2023-01-06T13:58:38.836Z,14.73
2023-01-06T14:01:07.677Z,13.00
2023-01-06T14:03:35.186Z,15.23
2023-01-06T14:06:04.052Z,12.60
2023-01-06T14:08:38.033Z,7.85
2023-01-06T14:11:27.214Z,10.35
2023-01-06T14:13:59.852Z,9.05
2023-01-06T14:16:41.677Z,12.77
2023-01-06T14:19:23.071Z,12.10
2023-01-06T14:21:52.472Z,12.82
2023-01-06T14:24:19.208Z,9.27
2023-01-06T14:26:51.213Z,8.88
2023-01-06T14:29:40.249Z,10.30
2023-01-06T14:32:11.866Z,10.40
2023-01-06T14:34:58.783Z,9.68
2023-01-06T14:37:34.527Z,9.80
2023-01-06T14:40:02.757Z,9.48
2023-01-06T14:42:43.743Z,11.25
2023-01-06T14:45:23.402Z,7.80
2023-01-06T14:48:10.467Z,9.88
2023-01-06T14:50:47.167Z,11.43
2023-01-06T14:53:23.126Z,9.35
2023-01-06T14:55:50.872Z,11.57
2023-01-06T14:58:47.166Z,11.40
2023-01-06T15:01:26.590Z,10.50
2023-01-06T15:03:59.856Z,14.70
2023-01-06T15:09:11.206Z,11.90
2023-01-06T15:11:41.951Z,10.77
2023-01-06T15:14:24.374Z,12.52
2023-01-06T15:16:51.389Z,8.45
2023-01-06T15:19:18.349Z,11.93
2023-01-06T15:21:47.640Z,12.65
2023-01-06T15:24:36.606Z,10.77
2023-01-06T15:27:14.282Z,8.07
2023-01-06T15:29:56.542Z,10.48
2023-01-06T15:32:26.476Z,7.75
2023-01-06T15:34:56.699Z,13.63
2023-01-06T15:37:31.106Z,13.75
2023-01-06T15:39:58.689Z,8.40
2023-01-06T15:42:26.815Z,13.00
2023-01-06T15:45:01.554Z,12.48
2023-01-06T15:47:39.882Z,12.77
2023-01-06T15:50:09.506Z,7.55
2023-01-06T15:52:49.525Z,10.18
2023-01-06T15:55:25.139Z,16.40
2023-01-06T15:57:57.548Z,12.93
2023-01-06T16:00:27.296Z,17.13
2023-01-06T16:02:54.497Z,17.13
2023-01-06T16:05:40.327Z,12.20
2023-01-06T16:08:25.621Z,14.75
2023-01-06T16:11:12.267Z,19.70
2023-01-06T16:13:41.205Z,13.15
2023-01-06T16:16:16.975Z,15.68
2023-01-06T16:18:44.932Z,15.90
2023-01-06T16:21:23.108Z,10.02
2023-01-06T16:23:54.049Z,17.02
2023-01-06T16:26:27.653Z,17.42
2023-01-06T16:28:59.902Z,17.60
2023-01-06T16:31:32.772Z,14.63
2023-01-06T16:34:35.473Z,15.35
2023-01-06T16:37:04.018Z,17.50
2023-01-06T16:39:30.798Z,12.68
2023-01-06T16:42:00.479Z,19.63
2023-01-06T16:44:29.694Z,14.95
2023-01-06T16:47:00.832Z,17.15
2023-01-06T16:49:29.318Z,15.07
2023-01-06T16:51:56.192Z,14.77
2023-01-06T16:54:23.634Z,15.63
2023-01-06T16:56:52.191Z,16.58
2023-01-06T16:59:20.077Z,20.48
2023-01-06T17:01:48.532Z,18.05
2023-01-06T17:04:16.265Z,18.60
2023-01-06T17:06:45.650Z,22.55
2023-01-06T17:09:20.904Z,18.08
2023-01-06T17:11:48.977Z,29.05
2023-01-06T17:14:21.240Z,41.22
2023-01-06T17:16:49.006Z,21.10
2023-01-06T17:19:26.832Z,20.33
2023-01-06T17:22:26.324Z,27.95
2023-01-06T17:24:54.366Z,23.25
2023-01-06T17:27:24.004Z,19.17
2023-01-06T17:29:51.754Z,21.27
2023-01-06T17:32:41.391Z,27.67
2023-01-06T17:35:29.407Z,24.15
2023-01-06T17:38:13.554Z,26.25
2023-01-06T17:40:40.371Z,21.42
2023-01-06T17:43:27.466Z,25.42
2023-01-06T17:45:54.441Z,28.60
2023-01-06T17:48:21.421Z,26.70
2023-01-06T17:50:54.056Z,27.73
2023-01-06T17:53:52.416Z,21.75
2023-01-06T17:56:20.978Z,22.83
2023-01-06T17:58:48.041Z,25.73
2023-01-06T18:01:27.621Z,20.45
2023-01-06T18:03:57.591Z,21.95
2023-01-06T18:06:37.279Z,26.73
2023-01-06T18:09:12.099Z,21.17
2023-01-06T18:11:49.740Z,24.58
2023-01-06T18:14:38.797Z,22.38
2023-01-06T18:17:15.283Z,22.95
2023-01-06T18:19:42.370Z,32.08
2023-01-06T18:22:21.472Z,23.50
2023-01-06T18:24:57.615Z,25.00
2023-01-06T18:27:27.859Z,26.90
2023-01-06T18:30:01.542Z,26.42
2023-01-06T18:32:33.502Z,18.98
2023-01-06T18:35:01.718Z,23.98
2023-01-06T18:37:34.347Z,27.13
2023-01-06T18:40:13.646Z,23.10
2023-01-06T18:42:49.576Z,25.65
2023-01-06T18:45:36.539Z,23.80
2023-01-06T18:48:11.975Z,24.52
2023-01-06T18:50:44.485Z,25.55
2023-01-06T18:53:13.991Z,23.27
2023-01-06T18:55:56.890Z,28.23
2023-01-06T18:58:52.846Z,26.35
2023-01-06T19:01:32.498Z,30.42
2023-01-06T19:04:04.359Z,27.98
2023-01-06T19:06:38.285Z,35.67
2023-01-06T19:09:31.352Z,33.80
2023-01-06T19:12:03.248Z,34.22
2023-01-06T19:14:36.422Z,30.98
2023-01-06T19:17:03.541Z,39.75
2023-01-06T19:19:38.907Z,27.48
2023-01-06T19:22:28.892Z,32.92
2023-01-06T19:25:04.123Z,31.70
2023-01-06T19:28:02.002Z,29.17
2023-01-06T19:30:32.136Z,33.88
2023-01-06T19:33:21.635Z,34.03
2023-01-06T19:35:49.238Z,29.77
2023-01-06T19:38:31.324Z,29.40
2023-01-06T19:41:01.785Z,31.75
2023-01-06T19:43:32.459Z,36.03
2023-01-06T19:46:04.754Z,30.95
2023-01-06T19:48:41.510Z,34.33
2023-01-06T19:51:33.887Z,29.95
2023-01-06T19:54:04.588Z,23.80
2023-01-06T19:56:36.364Z,27.85
2023-01-06T19:59:25.505Z,21.90
2023-01-06T20:02:07.892Z,27.65
2023-01-06T20:04:35.021Z,20.85
2023-01-06T20:07:02.289Z,19.85
2023-01-06T20:09:31.942Z,19.45
2023-01-06T20:12:00.162Z,19.58
2023-01-06T20:14:27.203Z,18.88
2023-01-06T20:16:54.465Z,18.80
2023-01-06T20:19:21.763Z,15.95
2023-01-06T20:21:49.833Z,16.73
2023-01-06T20:24:16.688Z,22.27
2023-01-06T20:26:43.860Z,16.23
2023-01-06T20:29:10.766Z,17.95
2023-01-06T20:31:37.964Z,13.70
2023-01-06T20:34:05.088Z,9.23
2023-01-06T20:36:32.216Z,11.25
2023-01-06T20:38:59.102Z,11.80
2023-01-06T20:41:25.912Z,12.65
2023-01-06T20:43:52.763Z,10.40
2023-01-06T20:46:19.701Z,8.57
2023-01-06T20:48:47.958Z,10.10
2023-01-06T20:51:14.899Z,5.65
2023-01-06T20:53:41.727Z,8.75
2023-01-06T20:56:08.716Z,6.50
2023-01-06T20:58:35.594Z,8.30
2023-01-06T21:01:02.591Z,5.78
2023-01-06T21:03:29.465Z,5.38
2023-01-06T21:05:56.258Z,6.47
2023-01-06T21:08:23.085Z,5.75
2023-01-06T21:10:49.911Z,5.22
2023-01-06T21:13:37.540Z,2.95
2023-01-06T21:16:04.398Z,3.90
2023-01-06T21:18:57.521Z,5.53
2023-01-06T21:21:50.432Z,3.88
2023-01-06T21:24:21.693Z,3.88
2023-01-06T21:27:09.743Z,4.50
2023-01-06T21:29:49.697Z,3.80
2023-01-06T21:32:16.675Z,4.88
2023-01-06T21:34:43.590Z,4.60
2023-01-06T21:37:10.479Z,4.93
2023-01-06T21:39:37.235Z,3.47
2023-01-06T21:42:41.878Z,4.32
2023-01-06T21:45:12.176Z,3.25
2023-01-06T21:47:38.902Z,5.05
2023-01-06T21:50:06.349Z,5.30
2023-01-06T21:52:33.278Z,4.05
2023-01-06T21:55:00.052Z,3.58
2023-01-06T21:57:27.903Z,5.10
2023-01-06T21:59:55.323Z,3.65
2023-01-06T22:02:22.432Z,2.85
2023-01-06T22:04:52.272Z,2.80
2023-01-06T22:07:20.991Z,3.40
2023-01-06T22:09:48.209Z,3.22
2023-01-06T22:12:22.859Z,5.05
2023-01-06T22:14:57.381Z,4.82
2023-01-06T22:17:27.016Z,6.88
2023-01-06T22:19:54.925Z,4.63
2023-01-06T22:22:22.733Z,5.30
2023-01-06T22:24:52.600Z,4.90
2023-01-06T22:27:19.340Z,4.47
2023-01-06T22:29:46.055Z,3.72
2023-01-06T22:32:16.028Z,4.43
2023-01-06T22:34:42.782Z,5.13
2023-01-06T22:37:09.576Z,5.15
2023-01-06T22:39:38.975Z,4.38
2023-01-06T22:42:06.240Z,3.92
2023-01-06T22:44:33.003Z,5.03
2023-01-06T22:47:00.808Z,5.32
2023-01-06T22:49:27.525Z,4.85
2023-01-06T22:51:54.260Z,3.95
2023-01-06T22:54:20.945Z,5.70
2023-01-06T22:56:50.631Z,4.93
2023-01-06T22:59:17.436Z,5.47
2023-01-06T23:01:44.530Z,4.82
2023-01-06T23:04:12.199Z,6.10
2023-01-06T23:06:39.390Z,5.07
2023-01-06T23:09:06.696Z,6.22
2023-01-06T23:11:35.407Z,6.95
2023-01-06T23:14:02.164Z,5.72
2023-01-06T23:16:30.312Z,4.30
2023-01-06T23:18:57.315Z,6.05
2023-01-06T23:21:26.746Z,5.50
2023-01-06T23:23:54.201Z,5.10
2023-01-06T23:26:25.166Z,4.75
2023-01-06T23:28:53.349Z,6.18
2023-01-06T23:31:35.445Z,4.57
2023-01-06T23:34:06.426Z,5.90
2023-01-06T23:36:33.707Z,3.92
2023-01-06T23:39:02.623Z,6.82
2023-01-06T23:41:31.331Z,5.50
2023-01-06T23:43:58.719Z,5.30
2023-01-06T23:46:36.922Z,3.90
2023-01-06T23:49:04.377Z,4.53
2023-01-06T23:51:32.360Z,5.05
2023-01-06T23:54:02.380Z,5.00
2023-01-06T23:56:31.020Z,6.32
2023-01-06T23:58:59.529Z,7.20
